<?xml version='1.0' encoding='UTF-8'?><gpx version="1.1" creator="JPX - https://github.com/jenetics/jpx" xmlns="http://www.topografix.com/GPX/1/1"><trk><trkseg><trkpt lat="42.5080497" lon="12.52172"><ele>339.0</ele><time>2026-04-05T16:17:28.976Z</time></trkpt><trkpt lat="42.5079837" lon="12.5217397"><ele>339.0</ele><time>2026-04-05T16:17:35.979Z</time></trkpt><trkpt lat="42.507918" lon="12.5217633"><ele>339.0</ele><time>2026-04-05T16:17:42.976Z</time></trkpt><trkpt lat="42.5078557" lon="12.5218007"><ele>339.0</ele><time>2026-04-05T16:17:48.976Z</time></trkpt><trkpt lat="42.5078001" lon="12.521848"><ele>339.0</ele><time>2026-04-05T16:17:54.976Z</time></trkpt><trkpt lat="42.5077489" lon="12.5219019"><ele>339.0</ele><time>2026-04-05T16:18:02.982Z</time></trkpt><trkpt lat="42.5077303" lon="12.5219864"><ele>339.0</ele><time>2026-04-05T16:18:16.98Z</time></trkpt><trkpt lat="42.5076869" lon="12.5220483"><ele>340.4285714285714</ele><time>2026-04-05T16:18:24.979Z</time></trkpt><trkpt lat="42.5076263" lon="12.5220744"><ele>341.8571428571429</ele><time>2026-04-05T16:18:30.98Z</time></trkpt><trkpt lat="42.5075565" lon="12.52209"><ele>343.2857142857143</ele><time>2026-04-05T16:18:36.98Z</time></trkpt><trkpt lat="42.5074873" lon="12.5221069"><ele>344.71428571428567</ele><time>2026-04-05T16:18:41.98Z</time></trkpt><trkpt lat="42.507419" lon="12.5221262"><ele>346.1428571428571</ele><time>2026-04-05T16:18:46.98Z</time></trkpt><trkpt lat="42.5073616" lon="12.5221751"><ele>347.57142857142856</ele><time>2026-04-05T16:18:52.979Z</time></trkpt><trkpt lat="42.5073191" lon="12.522243"><ele>349.0</ele><time>2026-04-05T16:18:59.98Z</time></trkpt><trkpt lat="42.5072608" lon="12.5222909"><ele>348.99999999999994</ele><time>2026-04-05T16:19:05.98Z</time></trkpt><trkpt lat="42.5071978" lon="12.5223309"><ele>349.0</ele><time>2026-04-05T16:19:14.98Z</time></trkpt><trkpt lat="42.5071344" lon="12.5223558"><ele>349.0</ele><time>2026-04-05T16:19:23.981Z</time></trkpt><trkpt lat="42.5070541" lon="12.522399"><ele>349.0</ele><time>2026-04-05T16:19:27.979Z</time></trkpt><trkpt lat="42.5069848" lon="12.5224172"><ele>349.0</ele><time>2026-04-05T16:19:30.981Z</time></trkpt><trkpt lat="42.506921" lon="12.5224388"><ele>348.99999999999994</ele><time>2026-04-05T16:19:35.98Z</time></trkpt><trkpt lat="42.5068566" lon="12.5224698"><ele>349.0</ele><time>2026-04-05T16:19:48.978Z</time></trkpt><trkpt lat="42.506787" lon="12.5224755"><ele>348.99999999999994</ele><time>2026-04-05T16:19:53.98Z</time></trkpt><trkpt lat="42.5067118" lon="12.5224718"><ele>349.0</ele><time>2026-04-05T16:19:58.982Z</time></trkpt><trkpt lat="42.50664" lon="12.5224783"><ele>349.0</ele><time>2026-04-05T16:20:05.98Z</time></trkpt><trkpt lat="42.5065745" lon="12.5224922"><ele>349.0</ele><time>2026-04-05T16:20:12.98Z</time></trkpt><trkpt lat="42.5065175" lon="12.5225292"><ele>349.0</ele><time>2026-04-05T16:20:21.979Z</time></trkpt><trkpt lat="42.5064537" lon="12.5225706"><ele>348.99999999999994</ele><time>2026-04-05T16:20:29.981Z</time></trkpt><trkpt lat="42.506387" lon="12.5225758"><ele>349.0</ele><time>2026-04-05T16:20:34.98Z</time></trkpt><trkpt lat="42.5063156" lon="12.5225851"><ele>348.99999999999994</ele><time>2026-04-05T16:20:40.979Z</time></trkpt><trkpt lat="42.5062531" lon="12.5226122"><ele>349.0</ele><time>2026-04-05T16:20:49.978Z</time></trkpt><trkpt lat="42.5061805" lon="12.5226106"><ele>349.0</ele><time>2026-04-05T16:20:57.979Z</time></trkpt><trkpt lat="42.5061101" lon="12.5225965"><ele>349.0</ele><time>2026-04-05T16:21:03.979Z</time></trkpt><trkpt lat="42.5060457" lon="12.52261"><ele>349.0</ele><time>2026-04-05T16:21:08.979Z</time></trkpt><trkpt lat="42.5059831" lon="12.5226507"><ele>348.99999999999994</ele><time>2026-04-05T16:21:14.98Z</time></trkpt><trkpt lat="42.505932" lon="12.5227037"><ele>349.0</ele><time>2026-04-05T16:21:21.979Z</time></trkpt><trkpt lat="42.505858" lon="12.5227108"><ele>349.2857142857143</ele><time>2026-04-05T16:21:29.981Z</time></trkpt><trkpt lat="42.5057879" lon="12.5227051"><ele>349.57142857142856</ele><time>2026-04-05T16:21:34.983Z</time></trkpt><trkpt lat="42.5057153" lon="12.5226874"><ele>349.8571428571429</ele><time>2026-04-05T16:21:39.979Z</time></trkpt><trkpt lat="42.5056437" lon="12.5226705"><ele>350.1428571428571</ele><time>2026-04-05T16:21:46.981Z</time></trkpt><trkpt lat="42.5055711" lon="12.522671"><ele>350.42857142857144</ele><time>2026-04-05T16:21:52.979Z</time></trkpt><trkpt lat="42.5055093" lon="12.5226345"><ele>350.7142857142857</ele><time>2026-04-05T16:21:57.98Z</time></trkpt><trkpt lat="42.5054457" lon="12.5225906"><ele>351.0</ele><time>2026-04-05T16:22:02.981Z</time></trkpt><trkpt lat="42.505387" lon="12.522558"><ele>350.00000000000006</ele><time>2026-04-05T16:22:07.98Z</time></trkpt><trkpt lat="42.5053198" lon="12.5225511"><ele>349.0</ele><time>2026-04-05T16:22:13.979Z</time></trkpt><trkpt lat="42.5052544" lon="12.5225605"><ele>348.0</ele><time>2026-04-05T16:22:20.981Z</time></trkpt><trkpt lat="42.505188" lon="12.5225833"><ele>347.0</ele><time>2026-04-05T16:22:27.979Z</time></trkpt><trkpt lat="42.5051268" lon="12.5226196"><ele>346.0</ele><time>2026-04-05T16:22:33.979Z</time></trkpt><trkpt lat="42.5050699" lon="12.5226583"><ele>345.00000000000006</ele><time>2026-04-05T16:22:39.98Z</time></trkpt><trkpt lat="42.5050137" lon="12.5227192"><ele>344.0</ele><time>2026-04-05T16:22:46.98Z</time></trkpt><trkpt lat="42.5049574" lon="12.5227727"><ele>344.00000000000006</ele><time>2026-04-05T16:22:53.98Z</time></trkpt><trkpt lat="42.5049013" lon="12.5228332"><ele>344.0</ele><time>2026-04-05T16:23:00.979Z</time></trkpt><trkpt lat="42.5048499" lon="12.5228966"><ele>344.0</ele><time>2026-04-05T16:23:07.981Z</time></trkpt><trkpt lat="42.5048036" lon="12.5229692"><ele>344.0</ele><time>2026-04-05T16:23:14.981Z</time></trkpt><trkpt lat="42.5047677" lon="12.5230398"><ele>344.0</ele><time>2026-04-05T16:23:20.983Z</time></trkpt><trkpt lat="42.5047389" lon="12.5231196"><ele>344.00000000000006</ele><time>2026-04-05T16:23:26.98Z</time></trkpt><trkpt lat="42.5047055" lon="12.5231973"><ele>344.0</ele><time>2026-04-05T16:23:33.98Z</time></trkpt><trkpt lat="42.5046657" lon="12.5232699"><ele>344.42857142857144</ele><time>2026-04-05T16:23:41.979Z</time></trkpt><trkpt lat="42.5046315" lon="12.5233505"><ele>344.8571428571429</ele><time>2026-04-05T16:23:49.98Z</time></trkpt><trkpt lat="42.504604" lon="12.5234377"><ele>345.28571428571433</ele><time>2026-04-05T16:23:58.981Z</time></trkpt><trkpt lat="42.5045722" lon="12.5235195"><ele>345.7142857142857</ele><time>2026-04-05T16:24:06.98Z</time></trkpt><trkpt lat="42.5045615" lon="12.523613"><ele>346.1428571428571</ele><time>2026-04-05T16:24:12.98Z</time></trkpt><trkpt lat="42.504538" lon="12.523698"><ele>346.5714285714286</ele><time>2026-04-05T16:24:18.98Z</time></trkpt><trkpt lat="42.5045136" lon="12.5237879"><ele>347.0</ele><time>2026-04-05T16:24:23.98Z</time></trkpt><trkpt lat="42.5044769" lon="12.5238634"><ele>348.7142857142857</ele><time>2026-04-05T16:24:30.981Z</time></trkpt><trkpt lat="42.5044254" lon="12.5239263"><ele>350.4285714285714</ele><time>2026-04-05T16:24:38.98Z</time></trkpt><trkpt lat="42.5043725" lon="12.5239826"><ele>352.1428571428571</ele><time>2026-04-05T16:24:45.98Z</time></trkpt><trkpt lat="42.5043269" lon="12.5240471"><ele>353.8571428571429</ele><time>2026-04-05T16:24:54.98Z</time></trkpt><trkpt lat="42.5042955" lon="12.5241261"><ele>355.57142857142856</ele><time>2026-04-05T16:25:01.979Z</time></trkpt><trkpt lat="42.5042515" lon="12.5241916"><ele>357.2857142857143</ele><time>2026-04-05T16:25:07.98Z</time></trkpt><trkpt lat="42.5041909" lon="12.5242167"><ele>359.0</ele><time>2026-04-05T16:25:13.98Z</time></trkpt><trkpt lat="42.5041272" lon="12.5242595"><ele>359.0</ele><time>2026-04-05T16:25:21.98Z</time></trkpt><trkpt lat="42.5040827" lon="12.5243342"><ele>359.0</ele><time>2026-04-05T16:25:28.979Z</time></trkpt><trkpt lat="42.5040346" lon="12.5243933"><ele>359.0</ele><time>2026-04-05T16:25:34.979Z</time></trkpt><trkpt lat="42.5039889" lon="12.5244585"><ele>359.0</ele><time>2026-04-05T16:25:41.98Z</time></trkpt><trkpt lat="42.503964" lon="12.524547"><ele>359.0</ele><time>2026-04-05T16:25:49.979Z</time></trkpt><trkpt lat="42.5039454" lon="12.5246334"><ele>359.0</ele><time>2026-04-05T16:25:55.98Z</time></trkpt><trkpt lat="42.5039339" lon="12.524721"><ele>359.0</ele><time>2026-04-05T16:26:01.979Z</time></trkpt><trkpt lat="42.5039162" lon="12.524808"><ele>359.8571428571429</ele><time>2026-04-05T16:26:08.979Z</time></trkpt><trkpt lat="42.5039013" lon="12.5248949"><ele>360.7142857142857</ele><time>2026-04-05T16:26:16.98Z</time></trkpt><trkpt lat="42.5039128" lon="12.5249904"><ele>361.57142857142856</ele><time>2026-04-05T16:26:23.98Z</time></trkpt><trkpt lat="42.5039094" lon="12.525087"><ele>362.42857142857144</ele><time>2026-04-05T16:26:30.98Z</time></trkpt><trkpt lat="42.50391" lon="12.5251837"><ele>363.2857142857143</ele><time>2026-04-05T16:26:36.98Z</time></trkpt><trkpt lat="42.503925" lon="12.5252686"><ele>364.14285714285717</ele><time>2026-04-05T16:26:42.98Z</time></trkpt><trkpt lat="42.5039454" lon="12.5253552"><ele>365.0</ele><time>2026-04-05T16:26:49.978Z</time></trkpt><trkpt lat="42.503962" lon="12.5254381"><ele>365.42857142857144</ele><time>2026-04-05T16:26:57.982Z</time></trkpt><trkpt lat="42.5039698" lon="12.5255372"><ele>365.8571428571429</ele><time>2026-04-05T16:27:05.982Z</time></trkpt><trkpt lat="42.5039903" lon="12.5256198"><ele>366.28571428571433</ele><time>2026-04-05T16:27:12.98Z</time></trkpt><trkpt lat="42.5040109" lon="12.5257082"><ele>366.7142857142857</ele><time>2026-04-05T16:27:20.98Z</time></trkpt><trkpt lat="42.504031" lon="12.5257949"><ele>367.1428571428571</ele><time>2026-04-05T16:27:27.979Z</time></trkpt><trkpt lat="42.504054" lon="12.5258791"><ele>367.5714285714286</ele><time>2026-04-05T16:27:35.978Z</time></trkpt><trkpt lat="42.5040818" lon="12.5259671"><ele>368.0</ele><time>2026-04-05T16:27:43.98Z</time></trkpt><trkpt lat="42.5040915" lon="12.5260515"><ele>368.0</ele><time>2026-04-05T16:27:50.979Z</time></trkpt><trkpt lat="42.5041065" lon="12.5261517"><ele>368.0</ele><time>2026-04-05T16:27:56.98Z</time></trkpt><trkpt lat="42.5041166" lon="12.5262476"><ele>368.0</ele><time>2026-04-05T16:28:02.98Z</time></trkpt><trkpt lat="42.5041197" lon="12.5263424"><ele>368.0</ele><time>2026-04-05T16:28:08.981Z</time></trkpt><trkpt lat="42.5041294" lon="12.5264385"><ele>368.0</ele><time>2026-04-05T16:28:15.98Z</time></trkpt><trkpt lat="42.5041353" lon="12.5265237"><ele>368.0</ele><time>2026-04-05T16:28:22.979Z</time></trkpt><trkpt lat="42.5041341" lon="12.5266137"><ele>368.0</ele><time>2026-04-05T16:28:28.98Z</time></trkpt><trkpt lat="42.5041384" lon="12.5267084"><ele>368.42857142857144</ele><time>2026-04-05T16:28:34.98Z</time></trkpt><trkpt lat="42.5041295" lon="12.526798"><ele>368.85714285714283</ele><time>2026-04-05T16:28:41.979Z</time></trkpt><trkpt lat="42.5041217" lon="12.5268885"><ele>369.2857142857143</ele><time>2026-04-05T16:28:49.979Z</time></trkpt><trkpt lat="42.5041257" lon="12.5269814"><ele>369.7142857142857</ele><time>2026-04-05T16:28:58.98Z</time></trkpt><trkpt lat="42.5041257" lon="12.5270748"><ele>370.1428571428571</ele><time>2026-04-05T16:29:06.98Z</time></trkpt><trkpt lat="42.5041339" lon="12.5271672"><ele>370.57142857142856</ele><time>2026-04-05T16:29:14.979Z</time></trkpt><trkpt lat="42.5041322" lon="12.5272552"><ele>371.0</ele><time>2026-04-05T16:29:22.98Z</time></trkpt><trkpt lat="42.5041605" lon="12.5273412"><ele>371.0</ele><time>2026-04-05T16:29:29.98Z</time></trkpt><trkpt lat="42.5041895" lon="12.5274271"><ele>371.0</ele><time>2026-04-05T16:29:34.981Z</time></trkpt><trkpt lat="42.5042158" lon="12.5275134"><ele>371.0</ele><time>2026-04-05T16:29:39.979Z</time></trkpt><trkpt lat="42.5042437" lon="12.5276026"><ele>371.0</ele><time>2026-04-05T16:29:45.979Z</time></trkpt><trkpt lat="42.504265" lon="12.5276957"><ele>371.0</ele><time>2026-04-05T16:29:52.98Z</time></trkpt><trkpt lat="42.5042916" lon="12.5277838"><ele>371.0</ele><time>2026-04-05T16:30:01.979Z</time></trkpt><trkpt lat="42.5043035" lon="12.5278716"><ele>371.0</ele><time>2026-04-05T16:30:08.98Z</time></trkpt><trkpt lat="42.5043039" lon="12.5279696"><ele>372.0</ele><time>2026-04-05T16:30:15.98Z</time></trkpt><trkpt lat="42.5043032" lon="12.5280589"><ele>373.0</ele><time>2026-04-05T16:30:21.979Z</time></trkpt><trkpt lat="42.5043004" lon="12.5281462"><ele>374.0</ele><time>2026-04-05T16:30:28.979Z</time></trkpt><trkpt lat="42.5043004" lon="12.5282413"><ele>375.0</ele><time>2026-04-05T16:30:36.982Z</time></trkpt><trkpt lat="42.5042778" lon="12.5283254"><ele>376.0</ele><time>2026-04-05T16:30:43.981Z</time></trkpt><trkpt lat="42.5042517" lon="12.5284103"><ele>377.0</ele><time>2026-04-05T16:30:50.978Z</time></trkpt><trkpt lat="42.5042112" lon="12.5284876"><ele>378.0</ele><time>2026-04-05T16:30:58.979Z</time></trkpt><trkpt lat="42.5041972" lon="12.5285787"><ele>378.0</ele><time>2026-04-05T16:31:04.979Z</time></trkpt><trkpt lat="42.5041822" lon="12.5286625"><ele>378.0</ele><time>2026-04-05T16:31:10.979Z</time></trkpt><trkpt lat="42.5041673" lon="12.528746"><ele>378.0</ele><time>2026-04-05T16:31:17.981Z</time></trkpt><trkpt lat="42.5041509" lon="12.5288417"><ele>378.0</ele><time>2026-04-05T16:31:24.979Z</time></trkpt><trkpt lat="42.5041377" lon="12.5289301"><ele>378.0</ele><time>2026-04-05T16:31:31.98Z</time></trkpt><trkpt lat="42.504116" lon="12.5290105"><ele>378.0</ele><time>2026-04-05T16:31:37.98Z</time></trkpt><trkpt lat="42.5040921" lon="12.5290957"><ele>378.0</ele><time>2026-04-05T16:31:44.98Z</time></trkpt><trkpt lat="42.5040677" lon="12.5291837"><ele>378.7142857142857</ele><time>2026-04-05T16:31:50.979Z</time></trkpt><trkpt lat="42.5040498" lon="12.5292712"><ele>379.42857142857144</ele><time>2026-04-05T16:31:56.981Z</time></trkpt><trkpt lat="42.5040111" lon="12.5293554"><ele>380.1428571428571</ele><time>2026-04-05T16:32:03.979Z</time></trkpt><trkpt lat="42.5039741" lon="12.5294301"><ele>380.8571428571429</ele><time>2026-04-05T16:32:10.98Z</time></trkpt><trkpt lat="42.5039347" lon="12.5295036"><ele>381.57142857142856</ele><time>2026-04-05T16:32:19.979Z</time></trkpt><trkpt lat="42.5039041" lon="12.5295832"><ele>382.2857142857143</ele><time>2026-04-05T16:32:27.981Z</time></trkpt><trkpt lat="42.5038449" lon="12.529626"><ele>383.0</ele><time>2026-04-05T16:32:35.979Z</time></trkpt><trkpt lat="42.503787" lon="12.5296693"><ele>388.0</ele><time>2026-04-05T16:32:41.98Z</time></trkpt></trkseg><trkseg><trkpt lat="42.4990601" lon="12.5325754"><ele>375.0</ele><time>2026-04-05T16:43:44.977Z</time></trkpt><trkpt lat="42.4990148" lon="12.5326417"><ele>375.0</ele><time>2026-04-05T16:43:49.976Z</time></trkpt><trkpt lat="42.4989559" lon="12.5326845"><ele>375.0</ele><time>2026-04-05T16:43:54.977Z</time></trkpt><trkpt lat="42.4988929" lon="12.5327258"><ele>375.0</ele><time>2026-04-05T16:44:00.975Z</time></trkpt><trkpt lat="42.4988414" lon="12.5327793"><ele>375.0</ele><time>2026-04-05T16:44:06.976Z</time></trkpt><trkpt lat="42.4987891" lon="12.5328285"><ele>375.0</ele><time>2026-04-05T16:44:12.977Z</time></trkpt><trkpt lat="42.4987306" lon="12.5328716"><ele>375.0</ele><time>2026-04-05T16:44:18.977Z</time></trkpt><trkpt lat="42.4986769" lon="12.5329306"><ele>374.8571428571429</ele><time>2026-04-05T16:44:24.977Z</time></trkpt><trkpt lat="42.4986259" lon="12.5329809"><ele>374.71428571428567</ele><time>2026-04-05T16:44:31.976Z</time></trkpt><trkpt lat="42.4985647" lon="12.533021"><ele>374.57142857142856</ele><time>2026-04-05T16:44:37.978Z</time></trkpt><trkpt lat="42.4985154" lon="12.5330816"><ele>374.42857142857144</ele><time>2026-04-05T16:44:44.977Z</time></trkpt><trkpt lat="42.4984553" lon="12.5331185"><ele>374.28571428571433</ele><time>2026-04-05T16:44:50.976Z</time></trkpt><trkpt lat="42.498395" lon="12.5331642"><ele>374.1428571428571</ele><time>2026-04-05T16:44:56.976Z</time></trkpt><trkpt lat="42.4983314" lon="12.5332015"><ele>374.0</ele><time>2026-04-05T16:45:03.976Z</time></trkpt><trkpt lat="42.4982636" lon="12.5332132"><ele>374.0</ele><time>2026-04-05T16:45:10.98Z</time></trkpt><trkpt lat="42.4982146" lon="12.5332761"><ele>374.0</ele><time>2026-04-05T16:45:17.978Z</time></trkpt><trkpt lat="42.4981643" lon="12.533328"><ele>374.0</ele><time>2026-04-05T16:45:29.977Z</time></trkpt><trkpt lat="42.4981188" lon="12.5333905"><ele>374.0</ele><time>2026-04-05T16:45:36.978Z</time></trkpt><trkpt lat="42.4980768" lon="12.5334606"><ele>374.0</ele><time>2026-04-05T16:45:43.977Z</time></trkpt><trkpt lat="42.4980165" lon="12.5334966"><ele>374.0</ele><time>2026-04-05T16:45:52.978Z</time></trkpt><trkpt lat="42.4979655" lon="12.533558"><ele>374.0</ele><time>2026-04-05T16:45:58.98Z</time></trkpt><trkpt lat="42.4979543" lon="12.5336469"><ele>373.57142857142856</ele><time>2026-04-05T16:46:06.979Z</time></trkpt><trkpt lat="42.497912" lon="12.5337244"><ele>373.14285714285717</ele><time>2026-04-05T16:46:13.977Z</time></trkpt><trkpt lat="42.497867" lon="12.5337959"><ele>372.7142857142857</ele><time>2026-04-05T16:46:21.979Z</time></trkpt><trkpt lat="42.4978165" lon="12.5338501"><ele>372.2857142857143</ele><time>2026-04-05T16:46:26.978Z</time></trkpt><trkpt lat="42.4977602" lon="12.5339062"><ele>371.8571428571429</ele><time>2026-04-05T16:46:32.981Z</time></trkpt><trkpt lat="42.4977219" lon="12.5339845"><ele>371.42857142857144</ele><time>2026-04-05T16:46:38.98Z</time></trkpt><trkpt lat="42.4976642" lon="12.534049"><ele>371.0</ele><time>2026-04-05T16:46:44.98Z</time></trkpt><trkpt lat="42.4976257" lon="12.5341227"><ele>371.0</ele><time>2026-04-05T16:46:50.979Z</time></trkpt><trkpt lat="42.4975635" lon="12.5341607"><ele>371.0</ele><time>2026-04-05T16:46:56.98Z</time></trkpt><trkpt lat="42.4975027" lon="12.5342176"><ele>371.0</ele><time>2026-04-05T16:47:03.979Z</time></trkpt><trkpt lat="42.4974465" lon="12.534268"><ele>371.0</ele><time>2026-04-05T16:47:08.98Z</time></trkpt><trkpt lat="42.4973975" lon="12.5343231"><ele>371.0</ele><time>2026-04-05T16:47:14.978Z</time></trkpt><trkpt lat="42.4973278" lon="12.5343475"><ele>371.0</ele><time>2026-04-05T16:47:20.981Z</time></trkpt><trkpt lat="42.4972609" lon="12.5343896"><ele>371.0</ele><time>2026-04-05T16:47:25.979Z</time></trkpt><trkpt lat="42.4971993" lon="12.5344288"><ele>371.0</ele><time>2026-04-05T16:47:30.979Z</time></trkpt><trkpt lat="42.497136" lon="12.534457"><ele>371.0</ele><time>2026-04-05T16:47:35.98Z</time></trkpt><trkpt lat="42.4970829" lon="12.5345116"><ele>371.0</ele><time>2026-04-05T16:47:44.98Z</time></trkpt><trkpt lat="42.4970189" lon="12.5345145"><ele>371.0</ele><time>2026-04-05T16:47:51.98Z</time></trkpt><trkpt lat="42.4969486" lon="12.5345157"><ele>371.0</ele><time>2026-04-05T16:47:56.979Z</time></trkpt><trkpt lat="42.4968838" lon="12.5345219"><ele>371.0</ele><time>2026-04-05T16:47:59.976Z</time></trkpt><trkpt lat="42.4968052" lon="12.5345283"><ele>371.0</ele><time>2026-04-05T16:48:02.977Z</time></trkpt><trkpt lat="42.4967419" lon="12.5345498"><ele>372.2857142857143</ele><time>2026-04-05T16:48:05.978Z</time></trkpt><trkpt lat="42.4966739" lon="12.534573"><ele>373.57142857142856</ele><time>2026-04-05T16:48:09.979Z</time></trkpt><trkpt lat="42.4966012" lon="12.5345741"><ele>374.8571428571429</ele><time>2026-04-05T16:48:14.977Z</time></trkpt><trkpt lat="42.4965391" lon="12.5345938"><ele>376.1428571428571</ele><time>2026-04-05T16:48:19.981Z</time></trkpt><trkpt lat="42.4964934" lon="12.5346531"><ele>377.42857142857144</ele><time>2026-04-05T16:48:25.979Z</time></trkpt><trkpt lat="42.4964556" lon="12.5347261"><ele>378.7142857142857</ele><time>2026-04-05T16:48:30.979Z</time></trkpt><trkpt lat="42.4964202" lon="12.5348071"><ele>380.0</ele><time>2026-04-05T16:48:37.979Z</time></trkpt><trkpt lat="42.4963848" lon="12.5348833"><ele>380.0</ele><time>2026-04-05T16:48:44.977Z</time></trkpt><trkpt lat="42.4963334" lon="12.5349348"><ele>380.0</ele><time>2026-04-05T16:48:52.976Z</time></trkpt><trkpt lat="42.4962808" lon="12.5349857"><ele>380.0</ele><time>2026-04-05T16:49:00.979Z</time></trkpt><trkpt lat="42.4962257" lon="12.5350427"><ele>380.0</ele><time>2026-04-05T16:49:06.979Z</time></trkpt><trkpt lat="42.4961689" lon="12.5350987"><ele>380.0</ele><time>2026-04-05T16:49:13.981Z</time></trkpt><trkpt lat="42.496116" lon="12.535149"><ele>380.0</ele><time>2026-04-05T16:49:19.977Z</time></trkpt><trkpt lat="42.4960586" lon="12.5351874"><ele>380.0</ele><time>2026-04-05T16:49:26.979Z</time></trkpt><trkpt lat="42.4960202" lon="12.5352563"><ele>380.2857142857143</ele><time>2026-04-05T16:49:32.979Z</time></trkpt><trkpt lat="42.4959675" lon="12.5353162"><ele>380.57142857142856</ele><time>2026-04-05T16:49:39.979Z</time></trkpt><trkpt lat="42.4959205" lon="12.5353855"><ele>380.8571428571429</ele><time>2026-04-05T16:49:47.978Z</time></trkpt><trkpt lat="42.4958695" lon="12.5354547"><ele>381.1428571428571</ele><time>2026-04-05T16:49:54.979Z</time></trkpt><trkpt lat="42.4958158" lon="12.5355021"><ele>381.4285714285714</ele><time>2026-04-05T16:50:00.977Z</time></trkpt><trkpt lat="42.4957546" lon="12.5355264"><ele>381.7142857142857</ele><time>2026-04-05T16:50:06.979Z</time></trkpt><trkpt lat="42.4956917" lon="12.5355726"><ele>382.0</ele><time>2026-04-05T16:50:13.978Z</time></trkpt><trkpt lat="42.4956302" lon="12.5356116"><ele>382.0</ele><time>2026-04-05T16:50:20.978Z</time></trkpt><trkpt lat="42.4955824" lon="12.5356729"><ele>382.0</ele><time>2026-04-05T16:50:28.979Z</time></trkpt><trkpt lat="42.4955392" lon="12.5357398"><ele>382.0</ele><time>2026-04-05T16:50:38.978Z</time></trkpt><trkpt lat="42.4954725" lon="12.5357877"><ele>382.0</ele><time>2026-04-05T16:50:44.977Z</time></trkpt><trkpt lat="42.4954206" lon="12.5358548"><ele>382.0</ele><time>2026-04-05T16:50:50.979Z</time></trkpt><trkpt lat="42.4953679" lon="12.5359024"><ele>382.0</ele><time>2026-04-05T16:50:58.977Z</time></trkpt><trkpt lat="42.4954355" lon="12.5358766"><ele>382.0</ele><time>2026-04-05T16:53:20.979Z</time></trkpt><trkpt lat="42.4954891" lon="12.5358136"><ele>382.0</ele><time>2026-04-05T16:53:26.978Z</time></trkpt><trkpt lat="42.4955363" lon="12.5357461"><ele>382.0</ele><time>2026-04-05T16:53:32.979Z</time></trkpt><trkpt lat="42.4955836" lon="12.5356766"><ele>382.0</ele><time>2026-04-05T16:53:37.979Z</time></trkpt><trkpt lat="42.4956306" lon="12.5356126"><ele>382.0</ele><time>2026-04-05T16:53:43.978Z</time></trkpt><trkpt lat="42.4956901" lon="12.5355671"><ele>382.0</ele><time>2026-04-05T16:53:49.978Z</time></trkpt><trkpt lat="42.4957551" lon="12.5355306"><ele>382.0</ele><time>2026-04-05T16:53:56.977Z</time></trkpt><trkpt lat="42.4958154" lon="12.5354864"><ele>382.0</ele><time>2026-04-05T16:54:02.977Z</time></trkpt><trkpt lat="42.4958749" lon="12.5354437"><ele>382.42857142857144</ele><time>2026-04-05T16:54:09.977Z</time></trkpt><trkpt lat="42.4959227" lon="12.5353837"><ele>382.85714285714283</ele><time>2026-04-05T16:54:15.976Z</time></trkpt><trkpt lat="42.4959799" lon="12.53532"><ele>383.2857142857143</ele><time>2026-04-05T16:54:21.977Z</time></trkpt><trkpt lat="42.4960313" lon="12.5352662"><ele>383.7142857142857</ele><time>2026-04-05T16:54:27.979Z</time></trkpt><trkpt lat="42.4960663" lon="12.5351948"><ele>384.1428571428571</ele><time>2026-04-05T16:54:33.978Z</time></trkpt><trkpt lat="42.4961187" lon="12.5351412"><ele>384.57142857142856</ele><time>2026-04-05T16:54:40.978Z</time></trkpt><trkpt lat="42.4961775" lon="12.5350971"><ele>385.0</ele><time>2026-04-05T16:54:48.978Z</time></trkpt><trkpt lat="42.4962399" lon="12.5350624"><ele>384.2857142857143</ele><time>2026-04-05T16:54:56.979Z</time></trkpt><trkpt lat="42.4962904" lon="12.5350031"><ele>383.57142857142856</ele><time>2026-04-05T16:55:02.977Z</time></trkpt><trkpt lat="42.4963211" lon="12.5349256"><ele>382.8571428571429</ele><time>2026-04-05T16:55:09.978Z</time></trkpt><trkpt lat="42.4963782" lon="12.5348654"><ele>382.1428571428571</ele><time>2026-04-05T16:55:16.977Z</time></trkpt><trkpt lat="42.4964201" lon="12.5347952"><ele>381.42857142857144</ele><time>2026-04-05T16:55:24.982Z</time></trkpt><trkpt lat="42.496458" lon="12.534724"><ele>380.7142857142857</ele><time>2026-04-05T16:55:34.98Z</time></trkpt><trkpt lat="42.4965132" lon="12.5346682"><ele>380.0</ele><time>2026-04-05T16:55:41.98Z</time></trkpt><trkpt lat="42.4965753" lon="12.5346446"><ele>380.0</ele><time>2026-04-05T16:55:50.981Z</time></trkpt><trkpt lat="42.4966433" lon="12.5346434"><ele>380.0</ele><time>2026-04-05T16:56:00.98Z</time></trkpt><trkpt lat="42.4967207" lon="12.5346332"><ele>380.0</ele><time>2026-04-05T16:56:10.978Z</time></trkpt><trkpt lat="42.496779" lon="12.5345695"><ele>380.0</ele><time>2026-04-05T16:56:15.981Z</time></trkpt><trkpt lat="42.4968449" lon="12.5345312"><ele>380.0</ele><time>2026-04-05T16:56:20.979Z</time></trkpt><trkpt lat="42.4969296" lon="12.5345262"><ele>380.0</ele><time>2026-04-05T16:56:26.98Z</time></trkpt><trkpt lat="42.4969988" lon="12.5345009"><ele>380.0</ele><time>2026-04-05T16:56:33.98Z</time></trkpt><trkpt lat="42.49707" lon="12.5344929"><ele>378.7142857142857</ele><time>2026-04-05T16:56:39.98Z</time></trkpt><trkpt lat="42.4971343" lon="12.5344605"><ele>377.42857142857144</ele><time>2026-04-05T16:56:48.98Z</time></trkpt><trkpt lat="42.4971999" lon="12.5344439"><ele>376.1428571428571</ele><time>2026-04-05T16:56:56.98Z</time></trkpt><trkpt lat="42.4972592" lon="12.5344116"><ele>374.8571428571429</ele><time>2026-04-05T16:57:02.981Z</time></trkpt><trkpt lat="42.4973182" lon="12.5343691"><ele>373.57142857142856</ele><time>2026-04-05T16:57:08.98Z</time></trkpt><trkpt lat="42.4973673" lon="12.5343116"><ele>372.2857142857143</ele><time>2026-04-05T16:57:14.981Z</time></trkpt><trkpt lat="42.4974206" lon="12.5342537"><ele>371.0</ele><time>2026-04-05T16:57:21.98Z</time></trkpt><trkpt lat="42.4974725" lon="12.5341858"><ele>371.0</ele><time>2026-04-05T16:57:30.981Z</time></trkpt><trkpt lat="42.497526" lon="12.5341157"><ele>371.0</ele><time>2026-04-05T16:57:36.982Z</time></trkpt><trkpt lat="42.497567" lon="12.5340402"><ele>371.0</ele><time>2026-04-05T16:57:41.98Z</time></trkpt><trkpt lat="42.4976216" lon="12.5339959"><ele>371.0</ele><time>2026-04-05T16:57:46.98Z</time></trkpt><trkpt lat="42.4976691" lon="12.5339398"><ele>371.0</ele><time>2026-04-05T16:57:53.979Z</time></trkpt><trkpt lat="42.4977147" lon="12.5338699"><ele>371.0</ele><time>2026-04-05T16:57:59.98Z</time></trkpt><trkpt lat="42.4977566" lon="12.5337951"><ele>371.0</ele><time>2026-04-05T16:58:04.98Z</time></trkpt><trkpt lat="42.497794" lon="12.53371"><ele>371.42857142857144</ele><time>2026-04-05T16:58:10.978Z</time></trkpt><trkpt lat="42.497842" lon="12.5336276"><ele>371.8571428571429</ele><time>2026-04-05T16:58:16.98Z</time></trkpt><trkpt lat="42.4978944" lon="12.53357"><ele>372.2857142857143</ele><time>2026-04-05T16:58:20.983Z</time></trkpt><trkpt lat="42.4979455" lon="12.5335172"><ele>372.7142857142857</ele><time>2026-04-05T16:58:25.979Z</time></trkpt><trkpt lat="42.4979981" lon="12.5334603"><ele>373.14285714285717</ele><time>2026-04-05T16:58:31.98Z</time></trkpt><trkpt lat="42.4980428" lon="12.5333827"><ele>373.57142857142856</ele><time>2026-04-05T16:58:38.98Z</time></trkpt><trkpt lat="42.4980981" lon="12.5333374"><ele>374.0</ele><time>2026-04-05T16:58:44.979Z</time></trkpt><trkpt lat="42.4981522" lon="12.5332888"><ele>374.0</ele><time>2026-04-05T16:58:49.98Z</time></trkpt><trkpt lat="42.4982035" lon="12.533237"><ele>374.0</ele><time>2026-04-05T16:58:56.979Z</time></trkpt><trkpt lat="42.498268" lon="12.5331975"><ele>374.0</ele><time>2026-04-05T16:59:03.98Z</time></trkpt><trkpt lat="42.4983288" lon="12.5331669"><ele>374.0</ele><time>2026-04-05T16:59:11.977Z</time></trkpt><trkpt lat="42.4983862" lon="12.5331226"><ele>374.0</ele><time>2026-04-05T16:59:18.981Z</time></trkpt><trkpt lat="42.4984375" lon="12.5330518"><ele>374.0</ele><time>2026-04-05T16:59:26.98Z</time></trkpt><trkpt lat="42.4984954" lon="12.5330016"><ele>374.0</ele><time>2026-04-05T16:59:32.98Z</time></trkpt><trkpt lat="42.4985518" lon="12.5329574"><ele>374.0</ele><time>2026-04-05T16:59:38.98Z</time></trkpt><trkpt lat="42.4986106" lon="12.5329145"><ele>374.0</ele><time>2026-04-05T16:59:45.979Z</time></trkpt><trkpt lat="42.4986766" lon="12.5328805"><ele>374.0</ele><time>2026-04-05T16:59:53.979Z</time></trkpt><trkpt lat="42.498734" lon="12.5328386"><ele>374.0</ele><time>2026-04-05T16:59:59.979Z</time></trkpt><trkpt lat="42.4987897" lon="12.5327793"><ele>374.0</ele><time>2026-04-05T17:00:07.978Z</time></trkpt><trkpt lat="42.4988537" lon="12.5327163"><ele>374.0</ele><time>2026-04-05T17:00:13.981Z</time></trkpt><trkpt lat="42.4989217" lon="12.5326736"><ele>374.0</ele><time>2026-04-05T17:00:18.98Z</time></trkpt><trkpt lat="42.4989789" lon="12.5326317"><ele>374.1428571428571</ele><time>2026-04-05T17:00:23.98Z</time></trkpt><trkpt lat="42.4990391" lon="12.5325834"><ele>374.28571428571433</ele><time>2026-04-05T17:00:29.98Z</time></trkpt><trkpt lat="42.499096" lon="12.5325339"><ele>374.42857142857144</ele><time>2026-04-05T17:00:34.979Z</time></trkpt><trkpt lat="42.4991575" lon="12.5324969"><ele>374.57142857142856</ele><time>2026-04-05T17:00:40.978Z</time></trkpt><trkpt lat="42.499228" lon="12.5324664"><ele>374.71428571428567</ele><time>2026-04-05T17:00:47.979Z</time></trkpt><trkpt lat="42.4992834" lon="12.5324201"><ele>374.8571428571429</ele><time>2026-04-05T17:00:52.979Z</time></trkpt><trkpt lat="42.4993429" lon="12.5323812"><ele>375.0</ele><time>2026-04-05T17:00:58.98Z</time></trkpt><trkpt lat="42.4993985" lon="12.5323325"><ele>375.0</ele><time>2026-04-05T17:01:04.979Z</time></trkpt><trkpt lat="42.4994687" lon="12.5322937"><ele>375.0</ele><time>2026-04-05T17:01:12.979Z</time></trkpt><trkpt lat="42.4995295" lon="12.5322558"><ele>375.0</ele><time>2026-04-05T17:01:17.979Z</time></trkpt><trkpt lat="42.4995883" lon="12.5322216"><ele>375.0</ele><time>2026-04-05T17:01:24.98Z</time></trkpt><trkpt lat="42.499645" lon="12.5321661"><ele>375.0</ele><time>2026-04-05T17:01:32.981Z</time></trkpt><trkpt lat="42.4997083" lon="12.5321225"><ele>375.0</ele><time>2026-04-05T17:01:40.979Z</time></trkpt><trkpt lat="42.4997616" lon="12.5320754"><ele>375.0</ele><time>2026-04-05T17:01:48.98Z</time></trkpt><trkpt lat="42.4998154" lon="12.532024"><ele>375.42857142857144</ele><time>2026-04-05T17:01:55.979Z</time></trkpt><trkpt lat="42.499875" lon="12.5319732"><ele>375.85714285714283</ele><time>2026-04-05T17:02:04.979Z</time></trkpt><trkpt lat="42.4999254" lon="12.5319172"><ele>376.2857142857143</ele><time>2026-04-05T17:02:09.978Z</time></trkpt><trkpt lat="42.4999717" lon="12.5318488"><ele>376.7142857142857</ele><time>2026-04-05T17:02:14.98Z</time></trkpt><trkpt lat="42.5000273" lon="12.5317957"><ele>377.1428571428571</ele><time>2026-04-05T17:02:21.977Z</time></trkpt><trkpt lat="42.5000821" lon="12.5317427"><ele>377.57142857142856</ele><time>2026-04-05T17:02:30.978Z</time></trkpt><trkpt lat="42.5001499" lon="12.5317151"><ele>378.0</ele><time>2026-04-05T17:02:35.979Z</time></trkpt><trkpt lat="42.5002086" lon="12.5316828"><ele>378.0</ele><time>2026-04-05T17:02:40.978Z</time></trkpt><trkpt lat="42.5002765" lon="12.5316676"><ele>378.0</ele><time>2026-04-05T17:02:47.978Z</time></trkpt><trkpt lat="42.5003479" lon="12.5316508"><ele>378.0</ele><time>2026-04-05T17:02:53.979Z</time></trkpt><trkpt lat="42.5004067" lon="12.5316151"><ele>378.0</ele><time>2026-04-05T17:02:59.978Z</time></trkpt><trkpt lat="42.5004706" lon="12.5315768"><ele>378.0</ele><time>2026-04-05T17:03:06.979Z</time></trkpt><trkpt lat="42.5005366" lon="12.5315588"><ele>378.0</ele><time>2026-04-05T17:03:11.98Z</time></trkpt><trkpt lat="42.5005972" lon="12.5315268"><ele>378.0</ele><time>2026-04-05T17:03:17.979Z</time></trkpt><trkpt lat="42.5006518" lon="12.5314819"><ele>378.7142857142857</ele><time>2026-04-05T17:03:24.98Z</time></trkpt><trkpt lat="42.5007065" lon="12.5314276"><ele>379.42857142857144</ele><time>2026-04-05T17:03:31.979Z</time></trkpt><trkpt lat="42.5007623" lon="12.5313694"><ele>380.1428571428571</ele><time>2026-04-05T17:03:37.979Z</time></trkpt><trkpt lat="42.5008171" lon="12.5313238"><ele>380.8571428571429</ele><time>2026-04-05T17:03:43.98Z</time></trkpt><trkpt lat="42.5008773" lon="12.5312918"><ele>381.57142857142856</ele><time>2026-04-05T17:03:51.979Z</time></trkpt><trkpt lat="42.5009357" lon="12.5312595"><ele>382.2857142857143</ele><time>2026-04-05T17:03:58.979Z</time></trkpt><trkpt lat="42.5009991" lon="12.5312063"><ele>383.0</ele><time>2026-04-05T17:04:04.98Z</time></trkpt><trkpt lat="42.5010556" lon="12.5311582"><ele>383.0</ele><time>2026-04-05T17:04:10.979Z</time></trkpt><trkpt lat="42.5011184" lon="12.5311205"><ele>383.0</ele><time>2026-04-05T17:04:17.978Z</time></trkpt><trkpt lat="42.5011804" lon="12.5310829"><ele>383.0</ele><time>2026-04-05T17:04:24.982Z</time></trkpt><trkpt lat="42.5012418" lon="12.5310394"><ele>383.0</ele><time>2026-04-05T17:04:30.979Z</time></trkpt><trkpt lat="42.5013057" lon="12.5310121"><ele>383.0</ele><time>2026-04-05T17:04:35.979Z</time></trkpt><trkpt lat="42.501367" lon="12.5309838"><ele>383.0</ele><time>2026-04-05T17:04:40.98Z</time></trkpt><trkpt lat="42.5014278" lon="12.530961"><ele>383.0</ele><time>2026-04-05T17:04:46.979Z</time></trkpt><trkpt lat="42.5014949" lon="12.5309537"><ele>383.57142857142856</ele><time>2026-04-05T17:04:52.982Z</time></trkpt><trkpt lat="42.5015644" lon="12.5309516"><ele>384.1428571428571</ele><time>2026-04-05T17:04:58.977Z</time></trkpt><trkpt lat="42.5016337" lon="12.530935"><ele>384.7142857142857</ele><time>2026-04-05T17:05:05.98Z</time></trkpt><trkpt lat="42.5016967" lon="12.5309154"><ele>385.2857142857143</ele><time>2026-04-05T17:05:13.98Z</time></trkpt><trkpt lat="42.5017596" lon="12.5308835"><ele>385.8571428571429</ele><time>2026-04-05T17:05:19.981Z</time></trkpt><trkpt lat="42.5018261" lon="12.5308538"><ele>386.42857142857144</ele><time>2026-04-05T17:05:25.98Z</time></trkpt><trkpt lat="42.501886" lon="12.5308134"><ele>387.0</ele><time>2026-04-05T17:05:31.979Z</time></trkpt><trkpt lat="42.5019483" lon="12.5307702"><ele>387.0</ele><time>2026-04-05T17:05:38.98Z</time></trkpt><trkpt lat="42.5020129" lon="12.5307409"><ele>387.0</ele><time>2026-04-05T17:05:44.977Z</time></trkpt><trkpt lat="42.5020725" lon="12.5306948"><ele>387.0</ele><time>2026-04-05T17:05:51.979Z</time></trkpt><trkpt lat="42.5021352" lon="12.5306595"><ele>387.0</ele><time>2026-04-05T17:05:57.979Z</time></trkpt><trkpt lat="42.5021904" lon="12.530609"><ele>387.0</ele><time>2026-04-05T17:06:03.978Z</time></trkpt><trkpt lat="42.5022537" lon="12.5305653"><ele>387.0</ele><time>2026-04-05T17:06:09.978Z</time></trkpt><trkpt lat="42.5023074" lon="12.5305086"><ele>387.0</ele><time>2026-04-05T17:06:15.979Z</time></trkpt><trkpt lat="42.5023728" lon="12.5304646"><ele>387.0</ele><time>2026-04-05T17:06:21.977Z</time></trkpt><trkpt lat="42.5024298" lon="12.53041"><ele>387.0</ele><time>2026-04-05T17:06:27.979Z</time></trkpt><trkpt lat="42.502471" lon="12.5303431"><ele>387.0</ele><time>2026-04-05T17:06:32.98Z</time></trkpt><trkpt lat="42.502515" lon="12.5302706"><ele>387.0</ele><time>2026-04-05T17:06:40.978Z</time></trkpt><trkpt lat="42.502573" lon="12.5302368"><ele>387.0</ele><time>2026-04-05T17:06:47.98Z</time></trkpt><trkpt lat="42.502633" lon="12.5302031"><ele>387.0</ele><time>2026-04-05T17:06:54.977Z</time></trkpt><trkpt lat="42.5026933" lon="12.5301764"><ele>387.0</ele><time>2026-04-05T17:07:01.98Z</time></trkpt><trkpt lat="42.5027628" lon="12.5301606"><ele>387.0</ele><time>2026-04-05T17:07:09.979Z</time></trkpt><trkpt lat="42.5028282" lon="12.5301236"><ele>387.0</ele><time>2026-04-05T17:07:15.978Z</time></trkpt><trkpt lat="42.5028975" lon="12.5300989"><ele>387.0</ele><time>2026-04-05T17:07:20.979Z</time></trkpt><trkpt lat="42.5029494" lon="12.5300403"><ele>387.0</ele><time>2026-04-05T17:07:27.98Z</time></trkpt><trkpt lat="42.5030181" lon="12.5300091"><ele>387.0</ele><time>2026-04-05T17:07:34.978Z</time></trkpt><trkpt lat="42.5030885" lon="12.5299829"><ele>387.0</ele><time>2026-04-05T17:07:41.98Z</time></trkpt><trkpt lat="42.503137" lon="12.5299186"><ele>387.0</ele><time>2026-04-05T17:07:49.978Z</time></trkpt><trkpt lat="42.5032079" lon="12.5298905"><ele>387.2857142857143</ele><time>2026-04-05T17:07:55.98Z</time></trkpt><trkpt lat="42.5032991" lon="12.529885"><ele>387.57142857142856</ele><time>2026-04-05T17:08:02.98Z</time></trkpt><trkpt lat="42.5033612" lon="12.529864"><ele>387.8571428571429</ele><time>2026-04-05T17:08:07.98Z</time></trkpt><trkpt lat="42.5034272" lon="12.5298231"><ele>388.1428571428571</ele><time>2026-04-05T17:08:15.977Z</time></trkpt><trkpt lat="42.5034904" lon="12.5298054"><ele>388.4285714285714</ele><time>2026-04-05T17:08:22.98Z</time></trkpt><trkpt lat="42.5035523" lon="12.5297594"><ele>388.7142857142857</ele><time>2026-04-05T17:08:28.978Z</time></trkpt><trkpt lat="42.5036098" lon="12.529712"><ele>389.0</ele><time>2026-04-05T17:08:33.978Z</time></trkpt><trkpt lat="42.5036743" lon="12.5296624"><ele>389.0</ele><time>2026-04-05T17:08:39.979Z</time></trkpt><trkpt lat="42.5037306" lon="12.529618"><ele>389.0</ele><time>2026-04-05T17:08:45.979Z</time></trkpt><trkpt lat="42.5037902" lon="12.5295782"><ele>389.0</ele><time>2026-04-05T17:08:52.978Z</time></trkpt><trkpt lat="42.5038455" lon="12.5295198"><ele>389.0</ele><time>2026-04-05T17:09:01.98Z</time></trkpt><trkpt lat="42.503903" lon="12.5294764"><ele>389.0</ele><time>2026-04-05T17:09:08.979Z</time></trkpt><trkpt lat="42.5039557" lon="12.5294208"><ele>389.0</ele><time>2026-04-05T17:09:16.978Z</time></trkpt><trkpt lat="42.5039939" lon="12.5293395"><ele>389.0</ele><time>2026-04-05T17:09:24.98Z</time></trkpt><trkpt lat="42.5040106" lon="12.5292523"><ele>388.14285714285717</ele><time>2026-04-05T17:09:34.978Z</time></trkpt><trkpt lat="42.5040319" lon="12.5291641"><ele>387.2857142857143</ele><time>2026-04-05T17:09:40.979Z</time></trkpt><trkpt lat="42.5040653" lon="12.5290845"><ele>386.42857142857144</ele><time>2026-04-05T17:09:46.979Z</time></trkpt><trkpt lat="42.504092" lon="12.5290056"><ele>385.57142857142856</ele><time>2026-04-05T17:09:53.98Z</time></trkpt><trkpt lat="42.5041137" lon="12.5289173"><ele>384.71428571428567</ele><time>2026-04-05T17:09:59.979Z</time></trkpt><trkpt lat="42.5041415" lon="12.5288269"><ele>383.85714285714283</ele><time>2026-04-05T17:10:06.98Z</time></trkpt><trkpt lat="42.5041577" lon="12.528742"><ele>383.0</ele><time>2026-04-05T17:10:12.98Z</time></trkpt><trkpt lat="42.5041766" lon="12.52866"><ele>382.2857142857143</ele><time>2026-04-05T17:10:19.981Z</time></trkpt><trkpt lat="42.5041932" lon="12.5285721"><ele>381.57142857142856</ele><time>2026-04-05T17:10:27.977Z</time></trkpt><trkpt lat="42.5042192" lon="12.5284825"><ele>380.8571428571429</ele><time>2026-04-05T17:10:35.98Z</time></trkpt><trkpt lat="42.5042498" lon="12.5284044"><ele>380.1428571428571</ele><time>2026-04-05T17:10:40.978Z</time></trkpt><trkpt lat="42.5042719" lon="12.5283029"><ele>379.42857142857144</ele><time>2026-04-05T17:10:46.979Z</time></trkpt><trkpt lat="42.504288" lon="12.5282198"><ele>378.7142857142857</ele><time>2026-04-05T17:10:54.979Z</time></trkpt><trkpt lat="42.5042726" lon="12.528135"><ele>378.0</ele><time>2026-04-05T17:11:04.979Z</time></trkpt><trkpt lat="42.5042597" lon="12.5280419"><ele>378.0</ele><time>2026-04-05T17:11:11.979Z</time></trkpt><trkpt lat="42.5042372" lon="12.5279517"><ele>378.0</ele><time>2026-04-05T17:11:18.979Z</time></trkpt><trkpt lat="42.504231" lon="12.5278593"><ele>378.0</ele><time>2026-04-05T17:11:24.979Z</time></trkpt><trkpt lat="42.5042216" lon="12.5277714"><ele>378.0</ele><time>2026-04-05T17:11:30.979Z</time></trkpt><trkpt lat="42.5042118" lon="12.5276815"><ele>378.0</ele><time>2026-04-05T17:11:37.979Z</time></trkpt><trkpt lat="42.5041746" lon="12.5276102"><ele>378.0</ele><time>2026-04-05T17:11:44.979Z</time></trkpt><trkpt lat="42.5041504" lon="12.5275291"><ele>378.0</ele><time>2026-04-05T17:11:50.979Z</time></trkpt><trkpt lat="42.504119" lon="12.5274505"><ele>377.0</ele><time>2026-04-05T17:11:57.977Z</time></trkpt><trkpt lat="42.5041066" lon="12.5273558"><ele>376.0</ele><time>2026-04-05T17:12:03.978Z</time></trkpt><trkpt lat="42.5040879" lon="12.527272"><ele>375.0</ele><time>2026-04-05T17:12:10.98Z</time></trkpt><trkpt lat="42.5040787" lon="12.5271794"><ele>374.0</ele><time>2026-04-05T17:12:19.979Z</time></trkpt><trkpt lat="42.5040927" lon="12.5270896"><ele>373.0</ele><time>2026-04-05T17:12:27.98Z</time></trkpt><trkpt lat="42.5041027" lon="12.5270031"><ele>372.0</ele><time>2026-04-05T17:12:34.979Z</time></trkpt><trkpt lat="42.5041159" lon="12.5269151"><ele>371.0</ele><time>2026-04-05T17:12:42.979Z</time></trkpt><trkpt lat="42.5041221" lon="12.5268291"><ele>371.0</ele><time>2026-04-05T17:12:49.979Z</time></trkpt><trkpt lat="42.5041272" lon="12.5267414"><ele>371.0</ele><time>2026-04-05T17:12:58.977Z</time></trkpt><trkpt lat="42.5041248" lon="12.5266507"><ele>371.0</ele><time>2026-04-05T17:13:04.98Z</time></trkpt><trkpt lat="42.5041107" lon="12.5265587"><ele>371.0</ele><time>2026-04-05T17:13:10.979Z</time></trkpt><trkpt lat="42.5040939" lon="12.5264644"><ele>371.0</ele><time>2026-04-05T17:13:17.978Z</time></trkpt><trkpt lat="42.5040889" lon="12.5263695"><ele>371.0</ele><time>2026-04-05T17:13:25.978Z</time></trkpt><trkpt lat="42.5044261" lon="12.5239165"><ele>368.0</ele><time>2026-04-05T17:16:37.978Z</time></trkpt><trkpt lat="42.5044747" lon="12.5238475"><ele>365.0</ele><time>2026-04-05T17:16:44.977Z</time></trkpt><trkpt lat="42.5045017" lon="12.5237641"><ele>362.0</ele><time>2026-04-05T17:16:51.976Z</time></trkpt><trkpt lat="42.5045543" lon="12.5235066"><ele>359.0</ele><time>2026-04-05T17:17:18.976Z</time></trkpt><trkpt lat="42.5046235" lon="12.5233564"><ele>358.6666666666667</ele><time>2026-04-05T17:17:30.977Z</time></trkpt><trkpt lat="42.5046657" lon="12.5232794"><ele>358.3333333333333</ele><time>2026-04-05T17:17:37.976Z</time></trkpt><trkpt lat="42.5047082" lon="12.5231964"><ele>358.0</ele><time>2026-04-05T17:17:43.976Z</time></trkpt><trkpt lat="42.5066031" lon="12.5224515"><ele>356.5</ele><time>2026-04-05T17:21:27.978Z</time></trkpt><trkpt lat="42.5067097" lon="12.5224252"><ele>355.0</ele><time>2026-04-05T17:21:36.976Z</time></trkpt><trkpt lat="42.5067805" lon="12.5224251"><ele>353.5</ele><time>2026-04-05T17:21:43.975Z</time></trkpt><trkpt lat="42.5068439" lon="12.5224079"><ele>352.0</ele><time>2026-04-05T17:21:47.976Z</time></trkpt><trkpt lat="42.5069111" lon="12.5223776"><ele>350.5</ele><time>2026-04-05T17:21:54.976Z</time></trkpt><trkpt lat="42.5069797" lon="12.5223414"><ele>349.0</ele><time>2026-04-05T17:22:01.977Z</time></trkpt><trkpt lat="42.5070389" lon="12.5223026"><ele>348.99999999999994</ele><time>2026-04-05T17:22:07.976Z</time></trkpt><trkpt lat="42.5071049" lon="12.5223041"><ele>349.0</ele><time>2026-04-05T17:22:14.976Z</time></trkpt><trkpt lat="42.5071602" lon="12.5222571"><ele>349.0</ele><time>2026-04-05T17:22:21.976Z</time></trkpt><trkpt lat="42.5072201" lon="12.5222253"><ele>349.0</ele><time>2026-04-05T17:22:27.976Z</time></trkpt><trkpt lat="42.5072867" lon="12.5221714"><ele>349.0</ele><time>2026-04-05T17:22:33.976Z</time></trkpt><trkpt lat="42.5073534" lon="12.5221395"><ele>348.99999999999994</ele><time>2026-04-05T17:22:38.977Z</time></trkpt><trkpt lat="42.5074235" lon="12.5221092"><ele>349.0</ele><time>2026-04-05T17:22:44.976Z</time></trkpt><trkpt lat="42.5074827" lon="12.5220727"><ele>348.99999999999994</ele><time>2026-04-05T17:22:49.976Z</time></trkpt><trkpt lat="42.5075468" lon="12.5220722"><ele>349.0</ele><time>2026-04-05T17:22:55.977Z</time></trkpt><trkpt lat="42.5076059" lon="12.5220122"><ele>349.0</ele><time>2026-04-05T17:23:04.977Z</time></trkpt><trkpt lat="42.5076622" lon="12.5219701"><ele>349.0</ele><time>2026-04-05T17:23:10.977Z</time></trkpt><trkpt lat="42.5077295" lon="12.5219319"><ele>349.0</ele><time>2026-04-05T17:23:16.977Z</time></trkpt><trkpt lat="42.5077842" lon="12.5218768"><ele>348.99999999999994</ele><time>2026-04-05T17:23:22.976Z</time></trkpt><trkpt lat="42.5078459" lon="12.5218343"><ele>349.0</ele><time>2026-04-05T17:23:28.976Z</time></trkpt><trkpt lat="42.5079075" lon="12.5218022"><ele>336.0</ele><time>2026-04-05T17:23:34.977Z</time></trkpt><trkpt lat="42.5079683" lon="12.5217737"><ele>339.0</ele><time>2026-04-05T17:23:40.976Z</time></trkpt></trkseg></trk></gpx>